FMCV

Ouani Airport

Ouani, Comoros
METAR FMCV 241200Z 24004KT 9999 SCT020 28/22 Q1015
Observed Flight Rules
Sep-24 @ 12:00 UTC (2 hours ago) Visual Flight Rules
Wind Visibility Clouds
240° at 4 knots 10,000+ meters
  • Scattered at 2,000' AGL
Temperatures Readings
Current 28°C / 82°F
Dewpoint 22°C / 72°F
Humidity 70%
Altimeter 29.97" Hg
Pressure 1015 hPa
Elevation 12
METAR FMCV 241200Z 24004KT 9999 SCT020 28/22 Q1015
Observed Flight Rules
Sep-24 @ 12:00 UTC
(2 hours ago)
VFR
Wind Visibility
240° at 4 knots 10,000+ meters
Clouds
  • Scattered at 2,000' AGL
Temperature Dewpoint
28°C / 82°F 22°C / 72°F
Humidity Altimeter Pressure
70% 29.97" Hg 1015 hPa